createdAt,value
2019-04-26T00:00:59.963Z,66.88
2019-04-26T00:01:59.958Z,67.08
2019-04-26T00:02:59.941Z,66.67
2019-04-26T00:03:59.929Z,66.77
2019-04-26T00:04:59.931Z,67.18
2019-04-26T00:05:59.913Z,66.67
2019-04-26T00:06:59.922Z,66.88
2019-04-26T00:07:59.895Z,66.67
2019-04-26T00:08:59.883Z,67.48
2019-04-26T00:09:59.877Z,67.48
2019-04-26T00:10:59.855Z,67.48
2019-04-26T00:11:59.899Z,66.97
2019-04-26T00:12:59.827Z,67.48
2019-04-26T00:13:59.821Z,67.18
2019-04-26T00:14:59.855Z,66.74
2019-04-26T00:15:59.807Z,67.18
2019-04-26T00:16:59.782Z,67.55
2019-04-26T00:17:59.778Z,67.08
2019-04-26T00:18:59.848Z,66.97
2019-04-26T00:19:59.780Z,67.14
2019-04-26T00:20:59.743Z,67.28
2019-04-26T00:21:59.739Z,67.68
2019-04-26T00:22:59.717Z,66.97
2019-04-26T00:23:59.716Z,68.09
2019-04-26T00:24:59.746Z,68.49
2019-04-26T00:25:59.691Z,67.99
2019-04-26T00:26:59.679Z,68.60
2019-04-26T00:27:59.686Z,67.89
2019-04-26T00:28:59.662Z,68.43
2019-04-26T00:29:59.675Z,67.31
2019-04-26T00:30:59.633Z,68.12
2019-04-26T00:31:59.626Z,68.32
2019-04-26T00:32:59.628Z,68.63
2019-04-26T00:33:59.601Z,68.52
2019-04-26T00:34:59.586Z,68.26
2019-04-26T00:35:59.628Z,69.57
2019-04-26T00:36:59.570Z,68.96
2019-04-26T00:37:59.564Z,69.68
2019-04-26T00:38:59.549Z,70.18
2019-04-26T00:39:59.536Z,69.98
2019-04-26T00:40:59.568Z,69.81
2019-04-26T00:41:59.524Z,71.00
2019-04-26T00:42:59.508Z,70.92
2019-04-26T00:43:59.498Z,70.92
2019-04-26T00:44:59.489Z,70.92
2019-04-26T00:45:59.501Z,71.50
2019-04-26T00:46:59.464Z,71.84
2019-04-26T00:47:59.456Z,71.70
2019-04-26T00:48:59.448Z,71.13
2019-04-26T00:49:59.428Z,71.73
2019-04-26T00:50:59.442Z,70.42
2019-04-26T00:51:59.412Z,71.64
2019-04-26T00:52:59.428Z,72.01
2019-04-26T00:53:59.384Z,70.89
2019-04-26T00:54:59.376Z,71.23
2019-04-26T00:55:59.386Z,70.72
2019-04-26T00:56:59.362Z,71.94
2019-04-26T00:57:59.350Z,71.44
2019-04-26T00:58:59.335Z,72.04
2019-04-26T00:59:59.360Z,71.53
2019-04-26T01:00:59.328Z,72.04
2019-04-26T01:01:59.299Z,71.84
2019-04-26T01:02:59.325Z,72.25
2019-04-26T01:03:59.276Z,72.55
2019-04-26T01:04:59.282Z,71.80
2019-04-26T01:06:00.224Z,71.80
2019-04-26T01:06:59.242Z,72.01
2019-04-26T01:07:59.237Z,72.08
2019-04-26T01:08:59.268Z,71.47
2019-04-26T01:09:59.222Z,71.77
2019-04-26T01:10:59.218Z,71.06
2019-04-26T01:11:59.247Z,71.06
2019-04-26T01:12:59.180Z,70.76
2019-04-26T01:13:59.178Z,70.96
2019-04-26T01:14:59.171Z,71.37
2019-04-26T01:15:59.175Z,70.76
2019-04-26T01:16:59.148Z,70.86
2019-04-26T01:17:59.131Z,71.77
2019-04-26T01:18:59.137Z,71.13
2019-04-26T01:19:59.111Z,71.73
2019-04-26T01:20:59.113Z,70.83
2019-04-26T01:21:59.085Z,70.72
2019-04-26T01:22:59.080Z,70.52
2019-04-26T01:23:59.065Z,70.39
2019-04-26T01:24:59.050Z,70.39
2019-04-26T01:25:59.056Z,70.39
2019-04-26T01:26:59.079Z,69.88
2019-04-26T01:27:59.023Z,70.49
2019-04-26T01:28:59.014Z,70.29
2019-04-26T01:29:59.003Z,70.21
2019-04-26T01:30:59.018Z,70.29
2019-04-26T01:31:58.993Z,70.62
2019-04-26T01:32:58.967Z,70.93
2019-04-26T01:33:58.953Z,70.83
2019-04-26T01:34:58.968Z,70.83
2019-04-26T01:35:58.947Z,70.49
2019-04-26T01:36:58.921Z,71.80
2019-04-26T01:37:58.935Z,71.23
2019-04-26T01:38:58.902Z,71.64
2019-04-26T01:39:58.887Z,71.03
2019-04-26T01:40:58.921Z,71.84
2019-04-26T01:41:58.877Z,71.64
2019-04-26T01:42:58.863Z,70.93
2019-04-26T01:43:58.862Z,70.62
2019-04-26T01:44:58.835Z,70.52
2019-04-26T01:45:58.822Z,71.44
2019-04-26T01:46:58.853Z,71.64
2019-04-26T01:47:58.809Z,70.72
2019-04-26T01:48:58.791Z,70.83
2019-04-26T01:49:58.787Z,71.53
2019-04-26T01:50:58.776Z,70.62
2019-04-26T01:51:58.775Z,71.73
2019-04-26T01:52:58.751Z,71.77
2019-04-26T01:53:58.740Z,71.73
2019-04-26T01:54:58.797Z,71.94
2019-04-26T01:55:58.715Z,71.73
2019-04-26T01:56:58.719Z,72.68
2019-04-26T01:57:58.691Z,72.48
2019-04-26T01:58:58.693Z,72.68
2019-04-26T01:59:58.674Z,72.08
2019-04-26T02:00:58.693Z,72.99
2019-04-26T02:01:58.676Z,73.09
2019-04-26T02:02:58.640Z,72.48
2019-04-26T02:03:58.627Z,72.89
2019-04-26T02:04:58.646Z,72.58
2019-04-26T02:05:58.608Z,72.99
2019-04-26T02:06:58.612Z,73.63
2019-04-26T02:07:58.586Z,73.70
2019-04-26T02:08:58.572Z,73.93
2019-04-26T02:09:58.570Z,74.04
2019-04-26T02:10:58.560Z,74.24
2019-04-26T02:11:58.553Z,73.90
2019-04-26T02:12:58.530Z,74.61
2019-04-26T02:13:58.569Z,74.21
2019-04-26T02:14:58.526Z,74.10
2019-04-26T02:15:58.502Z,74.10
2019-04-26T02:16:58.499Z,73.90
2019-04-26T02:17:58.482Z,74.30
2019-04-26T02:18:58.471Z,74.21
2019-04-26T02:19:58.472Z,73.90
2019-04-26T02:20:58.444Z,74.54
2019-04-26T02:21:58.486Z,74.54
2019-04-26T02:22:58.421Z,74.04
2019-04-26T02:23:58.488Z,74.85
2019-04-26T02:24:58.398Z,74.85
2019-04-26T02:25:58.392Z,74.44
2019-04-26T02:26:58.396Z,74.65
2019-04-26T02:27:58.399Z,74.88
2019-04-26T02:28:58.365Z,74.58
2019-04-26T02:29:58.352Z,75.19
2019-04-26T02:30:58.333Z,74.98
2019-04-26T02:31:58.346Z,74.58
2019-04-26T02:32:58.314Z,76.10
2019-04-26T02:33:58.303Z,76.31
2019-04-26T02:34:58.320Z,76.00
2019-04-26T02:35:58.284Z,76.85
2019-04-26T02:36:59.142Z,77.32
2019-04-26T02:37:58.261Z,76.81
2019-04-26T02:38:58.252Z,76.71
2019-04-26T02:39:58.239Z,76.64
2019-04-26T02:40:58.242Z,76.81
2019-04-26T02:41:58.238Z,77.01
2019-04-26T02:42:58.206Z,77.62
2019-04-26T02:43:58.200Z,76.81
2019-04-26T02:44:58.189Z,77.12
2019-04-26T02:45:58.174Z,77.32
2019-04-26T02:46:58.187Z,77.22
2019-04-26T02:47:58.166Z,77.01
2019-04-26T02:48:58.135Z,78.57
2019-04-26T02:49:58.170Z,77.86
2019-04-26T02:50:58.120Z,78.23
2019-04-26T02:51:58.146Z,78.47
2019-04-26T02:52:58.202Z,78.57
2019-04-26T02:53:58.092Z,78.27
2019-04-26T02:54:58.091Z,77.97
2019-04-26T02:55:58.063Z,78.98
2019-04-26T02:56:58.099Z,78.47
2019-04-26T02:57:58.062Z,77.66
2019-04-26T02:58:58.041Z,79.08
2019-04-26T02:59:58.030Z,78.98
2019-04-26T03:00:58.014Z,79.45
2019-04-26T03:01:58.000Z,78.94
2019-04-26T03:02:58.015Z,79.25
2019-04-26T03:03:58.004Z,79.04
2019-04-26T03:04:57.985Z,79.35
2019-04-26T03:05:57.957Z,79.14
2019-04-26T03:07:03.669Z,79.04
2019-04-26T03:07:58.983Z,78.94
2019-04-26T03:08:57.935Z,78.84
2019-04-26T03:09:57.920Z,79.25
2019-04-26T03:10:57.967Z,79.45
2019-04-26T03:11:57.900Z,79.14
2019-04-26T03:12:57.903Z,78.53
2019-04-26T03:13:57.879Z,78.94
2019-04-26T03:15:12.594Z,79.45
2019-04-26T03:15:58.852Z,79.14
2019-04-26T03:16:57.855Z,79.96
2019-04-26T03:17:57.893Z,79.14
2019-04-26T03:18:57.819Z,79.85
2019-04-26T03:19:57.818Z,79.45
2019-04-26T03:20:57.807Z,79.55
2019-04-26T03:21:57.795Z,80.66
2019-04-26T03:22:57.795Z,79.55
2019-04-26T03:23:59.396Z,79.35
2019-04-26T03:24:57.760Z,78.74
2019-04-26T03:25:57.752Z,78.94
2019-04-26T03:26:57.765Z,80.66
2019-04-26T03:27:57.745Z,80.66
2019-04-26T03:28:57.715Z,80.66
2019-04-26T03:30:17.678Z,80.66
2019-04-26T03:30:58.715Z,80.46
2019-04-26T03:31:57.679Z,80.46
2019-04-26T03:32:57.782Z,80.77
2019-04-26T03:33:57.824Z,80.36
2019-04-26T03:34:57.657Z,80.36
2019-04-26T03:35:58.435Z,80.16
2019-04-26T03:36:57.629Z,80.36
2019-04-26T03:37:57.635Z,80.66
2019-04-26T03:38:57.612Z,79.25
2019-04-26T03:39:57.649Z,78.74
2019-04-26T03:40:57.590Z,79.75
2019-04-26T03:41:57.576Z,79.59
2019-04-26T03:42:57.576Z,79.59
2019-04-26T03:43:57.560Z,79.38
2019-04-26T03:44:57.558Z,80.30
2019-04-26T03:45:57.529Z,80.80
2019-04-26T03:46:57.517Z,80.91
2019-04-26T03:47:57.522Z,81.11
2019-04-26T03:48:57.502Z,81.21
2019-04-26T03:49:57.483Z,81.31
2019-04-26T03:50:57.489Z,81.11
2019-04-26T03:51:57.461Z,81.56
2019-04-26T03:52:57.497Z,80.91
2019-04-26T03:53:57.442Z,81.25
2019-04-26T03:54:57.439Z,81.96
2019-04-26T03:55:57.424Z,82.87
2019-04-26T03:56:57.430Z,83.18
2019-04-26T03:57:57.396Z,82.78
2019-04-26T03:58:57.411Z,82.37
2019-04-26T03:59:57.385Z,82.67
2019-04-26T04:00:57.361Z,82.67
2019-04-26T04:01:57.362Z,83.04
2019-04-26T04:02:57.343Z,82.78
2019-04-26T04:03:57.351Z,81.96
2019-04-26T04:04:57.314Z,83.18
2019-04-26T04:05:57.315Z,82.67
2019-04-26T04:07:04.374Z,82.98
2019-04-26T04:07:58.281Z,82.78
2019-04-26T04:08:57.318Z,82.84
2019-04-26T04:09:57.271Z,82.43
2019-04-26T04:10:57.281Z,81.96
2019-04-26T04:12:11.102Z,83.08
2019-04-26T04:12:58.229Z,83.48
2019-04-26T04:13:57.296Z,82.37
2019-04-26T04:14:57.206Z,82.47
2019-04-26T04:15:57.207Z,82.57
2019-04-26T04:16:57.204Z,82.98
2019-04-26T04:17:57.176Z,84.09
2019-04-26T04:18:57.174Z,84.30
2019-04-26T04:19:57.163Z,84.40
2019-04-26T04:20:57.143Z,83.79
2019-04-26T04:21:57.135Z,83.08
2019-04-26T04:22:57.127Z,84.20
2019-04-26T04:23:57.134Z,83.69
2019-04-26T04:24:57.102Z,84.05
2019-04-26T04:25:57.156Z,84.30
2019-04-26T04:26:57.087Z,84.26
2019-04-26T04:27:57.076Z,84.16
2019-04-26T04:28:57.070Z,84.26
2019-04-26T04:29:57.043Z,84.12
2019-04-26T04:30:57.036Z,84.12
2019-04-26T04:31:57.039Z,83.06
2019-04-26T04:32:57.022Z,82.45
2019-04-26T04:33:57.014Z,82.68
2019-04-26T04:34:56.996Z,81.71
2019-04-26T04:35:57.029Z,81.57
2019-04-26T04:36:56.972Z,80.72
2019-04-26T04:38:08.754Z,80.31
2019-04-26T04:39:11.164Z,80.98
2019-04-26T04:39:57.949Z,79.97
2019-04-26T04:40:56.924Z,79.83
2019-04-26T04:41:56.922Z,79.63
2019-04-26T04:42:56.993Z,78.88
2019-04-26T04:43:56.920Z,78.28
2019-04-26T04:44:56.911Z,77.03
2019-04-26T04:45:56.938Z,76.93
2019-04-26T04:46:56.861Z,77.03
2019-04-26T04:47:56.858Z,76.62
2019-04-26T04:48:56.878Z,76.93
2019-04-26T04:49:56.842Z,77.03
2019-04-26T04:50:56.813Z,77.03
2019-04-26T04:51:56.821Z,76.72
2019-04-26T04:52:56.815Z,77.03
2019-04-26T04:53:56.815Z,76.82
2019-04-26T04:55:06.629Z,77.13
2019-04-26T04:55:57.766Z,76.82
2019-04-26T04:56:56.759Z,77.64
2019-04-26T04:57:56.737Z,77.50
2019-04-26T04:58:56.771Z,77.64
2019-04-26T04:59:56.732Z,77.94
2019-04-26T05:00:56.716Z,77.39
2019-04-26T05:01:56.694Z,77.39
2019-04-26T05:02:56.729Z,78.20
2019-04-26T05:03:56.690Z,78.04
2019-04-26T05:04:56.751Z,78.00
2019-04-26T05:06:06.947Z,78.30
2019-04-26T05:06:57.644Z,77.70
2019-04-26T05:08:06.291Z,78.00
2019-04-26T05:08:57.620Z,78.10
2019-04-26T05:09:56.632Z,77.60
2019-04-26T05:10:56.602Z,78.10
2019-04-26T05:11:56.587Z,77.80
2019-04-26T05:12:56.620Z,78.71
2019-04-26T05:13:56.568Z,78.10
2019-04-26T05:14:56.572Z,78.30
2019-04-26T05:15:56.549Z,77.70
2019-04-26T05:16:56.544Z,78.61
2019-04-26T05:17:56.548Z,78.57
2019-04-26T05:18:56.516Z,77.15
2019-04-26T05:19:56.533Z,77.36
2019-04-26T05:20:56.498Z,77.46
2019-04-26T05:21:56.478Z,76.75
2019-04-26T05:22:56.482Z,77.62
2019-04-26T05:23:56.456Z,76.72
2019-04-26T05:24:56.462Z,76.72
2019-04-26T05:25:56.467Z,76.78
2019-04-26T05:26:56.439Z,75.98
2019-04-26T05:27:57.193Z,76.07
2019-04-26T05:28:56.439Z,75.23
2019-04-26T05:29:56.414Z,76.34
2019-04-26T05:30:56.392Z,74.79
2019-04-26T05:31:56.380Z,74.79
2019-04-26T05:32:57.095Z,74.35
2019-04-26T05:33:56.727Z,73.95
2019-04-26T05:34:56.947Z,73.01
2019-04-26T05:35:57.296Z,73.21
2019-04-26T05:36:56.843Z,72.34
2019-04-26T05:37:57.271Z,70.06
2019-04-26T05:38:57.409Z,69.29
2019-04-26T05:39:57.378Z,67.61
2019-04-26T05:40:56.276Z,67.38
2019-04-26T05:41:56.264Z,65.82
2019-04-26T05:42:56.261Z,64.39
2019-04-26T05:43:56.254Z,63.42
2019-04-26T05:44:56.789Z,62.59
2019-04-26T05:45:56.288Z,61.57
2019-04-26T05:46:56.239Z,60.24
2019-04-26T05:48:08.380Z,60.00
2019-04-26T05:48:57.902Z,59.58
2019-04-26T05:49:56.219Z,58.28
2019-04-26T05:50:56.169Z,58.25
2019-04-26T05:51:56.161Z,58.33
2019-04-26T05:52:57.217Z,57.60
2019-04-26T05:53:57.153Z,56.68
2019-04-26T05:54:56.211Z,56.65
2019-04-26T05:55:56.135Z,55.26
2019-04-26T05:56:56.302Z,55.13
2019-04-26T05:57:56.405Z,54.60
2019-04-26T05:58:58.405Z,53.88
2019-04-26T05:59:56.742Z,54.55
2019-04-26T06:00:56.082Z,52.34
2019-04-26T06:01:56.857Z,51.92
2019-04-26T06:02:56.813Z,51.03
2019-04-26T06:03:56.268Z,50.90
2019-04-26T06:04:57.140Z,51.40
2019-04-26T06:05:56.492Z,51.07
2019-04-26T06:06:57.212Z,50.28
2019-04-26T06:07:56.368Z,50.58
2019-04-26T06:08:55.995Z,50.48
2019-04-26T06:09:56.488Z,49.96
2019-04-26T06:10:55.983Z,49.66
2019-04-26T06:11:56.633Z,49.66
2019-04-26T06:12:56.589Z,49.94
2019-04-26T06:13:55.935Z,49.42
2019-04-26T06:14:56.789Z,49.40
2019-04-26T06:15:55.988Z,49.77
2019-04-26T06:16:56.937Z,47.47
2019-04-26T06:17:55.889Z,47.37
2019-04-26T06:18:55.878Z,47.84
2019-04-26T06:19:55.885Z,47.22
2019-04-26T06:20:55.867Z,46.93
2019-04-26T06:21:55.887Z,46.83
2019-04-26T06:22:57.505Z,45.54
2019-04-26T06:23:55.825Z,45.84
2019-04-26T06:24:56.104Z,45.62
2019-04-26T06:25:58.300Z,46.98
2019-04-26T06:27:10.329Z,45.30
2019-04-26T06:27:56.779Z,44.98
2019-04-26T06:28:56.357Z,45.06
2019-04-26T06:29:56.588Z,43.56
2019-04-26T06:30:55.757Z,43.34
2019-04-26T06:31:55.927Z,43.88
2019-04-26T06:33:00.419Z,43.19
2019-04-26T06:33:56.713Z,44.25
2019-04-26T06:34:55.702Z,43.27
2019-04-26T06:35:55.826Z,44.62
2019-04-26T06:36:56.138Z,43.62
2019-04-26T06:37:55.675Z,44.07
2019-04-26T06:38:55.987Z,42.20
2019-04-26T06:39:56.014Z,42.57
2019-04-26T06:40:55.954Z,41.96
2019-04-26T06:41:56.064Z,40.88
2019-04-26T06:42:56.276Z,40.70
2019-04-26T06:43:56.486Z,42.25
2019-04-26T06:44:56.303Z,41.37
2019-04-26T06:45:56.804Z,41.35
2019-04-26T06:46:56.291Z,41.77
2019-04-26T06:47:56.874Z,40.86
2019-04-26T06:48:56.174Z,40.64
2019-04-26T06:49:55.560Z,40.47
2019-04-26T06:50:55.565Z,40.66
2019-04-26T06:51:57.012Z,41.14
2019-04-26T06:52:56.639Z,40.53
2019-04-26T06:53:57.131Z,40.72
2019-04-26T06:54:56.373Z,39.84
2019-04-26T06:55:56.476Z,39.92
2019-04-26T06:56:55.896Z,40.03
2019-04-26T06:57:55.470Z,40.53
2019-04-26T06:58:55.526Z,40.58
2019-04-26T06:59:57.392Z,39.70
2019-04-26T07:00:57.435Z,38.43
2019-04-26T07:01:56.340Z,39.69
2019-04-26T07:02:57.431Z,39.86
2019-04-26T07:03:55.446Z,38.65
2019-04-26T07:04:55.399Z,37.95
2019-04-26T07:05:55.401Z,36.43
2019-04-26T07:06:55.374Z,36.83
2019-04-26T07:07:55.386Z,36.34
2019-04-26T07:08:57.753Z,36.63
2019-04-26T07:09:55.350Z,36.24
2019-04-26T07:10:55.481Z,36.24
2019-04-26T07:11:55.327Z,36.13
2019-04-26T07:12:55.350Z,35.85
2019-04-26T07:13:55.315Z,36.54
2019-04-26T07:14:55.292Z,36.04
2019-04-26T07:15:55.295Z,35.74
2019-04-26T07:16:55.285Z,36.80
2019-04-26T07:17:55.331Z,35.61
2019-04-26T07:18:55.254Z,35.72
2019-04-26T07:19:55.245Z,36.21
2019-04-26T07:20:55.339Z,35.78
2019-04-26T07:21:55.241Z,35.57
2019-04-26T07:22:55.213Z,34.39
2019-04-26T07:23:55.209Z,34.40
2019-04-26T07:24:55.201Z,34.21
2019-04-26T07:25:55.231Z,33.80
2019-04-26T07:26:55.199Z,34.06
2019-04-26T07:28:03.826Z,33.56
2019-04-26T07:28:56.151Z,33.36
2019-04-26T07:29:55.155Z,33.06
2019-04-26T07:30:55.189Z,33.20
2019-04-26T07:31:55.176Z,34.89
2019-04-26T07:32:55.113Z,36.06
2019-04-26T07:33:55.297Z,34.58
2019-04-26T07:34:55.089Z,33.67
2019-04-26T07:35:55.077Z,34.27
2019-04-26T07:36:55.109Z,34.09
2019-04-26T07:37:55.064Z,34.71
2019-04-26T07:38:55.049Z,34.61
2019-04-26T07:39:55.043Z,36.33
2019-04-26T07:40:55.077Z,34.48
2019-04-26T07:41:55.105Z,34.01
2019-04-26T07:42:55.019Z,35.96
2019-04-26T07:43:55.004Z,36.25
2019-04-26T07:44:55.017Z,34.31
2019-04-26T07:45:55.073Z,35.49
2019-04-26T07:46:54.989Z,35.22
2019-04-26T07:47:55.003Z,35.74
2019-04-26T07:48:54.951Z,35.97
2019-04-26T07:49:54.941Z,35.97
2019-04-26T07:50:54.974Z,35.94
2019-04-26T07:51:54.942Z,37.29
2019-04-26T07:52:54.913Z,37.52
2019-04-26T07:53:54.939Z,36.16
2019-04-26T07:54:54.888Z,35.89
2019-04-26T07:55:54.903Z,36.65
2019-04-26T07:56:54.945Z,37.57
2019-04-26T07:57:54.860Z,33.72
2019-04-26T07:58:54.854Z,34.11
2019-04-26T07:59:54.846Z,35.83
2019-04-26T08:00:54.828Z,33.70
2019-04-26T08:01:54.832Z,35.94
2019-04-26T08:02:54.884Z,34.56
2019-04-26T08:03:54.853Z,34.68
2019-04-26T08:04:54.788Z,35.50
2019-04-26T08:05:54.794Z,33.95
2019-04-26T08:06:54.797Z,34.61
2019-04-26T08:07:54.781Z,32.49
2019-04-26T08:08:54.751Z,31.79
2019-04-26T08:09:59.798Z,33.81
2019-04-26T08:10:55.728Z,34.32
2019-04-26T08:11:54.833Z,34.50
2019-04-26T08:12:54.726Z,32.28
2019-04-26T08:13:54.696Z,33.73
2019-04-26T08:14:54.710Z,34.42
2019-04-26T08:15:54.711Z,33.20
2019-04-26T08:16:54.698Z,32.23
2019-04-26T08:17:54.667Z,31.37
2019-04-26T08:18:54.677Z,32.34
2019-04-26T08:19:57.478Z,31.65
2019-04-26T08:20:54.677Z,31.95
2019-04-26T08:21:54.664Z,33.23
2019-04-26T08:22:54.616Z,33.54
2019-04-26T08:23:56.413Z,33.44
2019-04-26T08:24:54.622Z,32.39
2019-04-26T08:25:54.590Z,33.38
2019-04-26T08:26:54.598Z,34.37
2019-04-26T08:27:54.580Z,32.24
2019-04-26T08:28:56.670Z,33.04
2019-04-26T08:29:55.544Z,33.93
2019-04-26T08:30:54.542Z,34.63
2019-04-26T08:31:57.788Z,33.18
2019-04-26T08:32:54.519Z,36.43
2019-04-26T08:33:54.527Z,35.46
2019-04-26T08:34:54.537Z,37.62
2019-04-26T08:35:54.485Z,35.97
2019-04-26T08:36:57.232Z,36.85
2019-04-26T08:37:55.471Z,37.83
2019-04-26T08:38:54.455Z,36.75
2019-04-26T08:39:54.460Z,36.96
2019-04-26T08:40:54.463Z,38.14
2019-04-26T08:41:54.439Z,37.67
2019-04-26T08:42:57.333Z,36.12
2019-04-26T08:43:55.828Z,36.61
2019-04-26T08:44:54.397Z,37.51
2019-04-26T08:46:02.808Z,38.21
2019-04-26T08:46:57.001Z,38.51
2019-04-26T08:47:54.365Z,37.65
2019-04-26T08:48:54.351Z,39.62
2019-04-26T08:49:54.346Z,40.62
2019-04-26T08:50:54.357Z,40.43
2019-04-26T08:51:56.006Z,40.62
2019-04-26T08:52:54.312Z,40.06
2019-04-26T08:53:54.322Z,38.90
2019-04-26T08:54:54.313Z,41.94
2019-04-26T08:55:54.280Z,40.76
2019-04-26T08:56:54.301Z,41.35
2019-04-26T08:57:54.259Z,42.02
2019-04-26T08:58:54.269Z,41.92
2019-04-26T08:59:54.255Z,42.71
2019-04-26T09:00:54.227Z,40.72
2019-04-26T09:01:54.255Z,38.46
2019-04-26T09:02:54.205Z,39.14
2019-04-26T09:03:54.197Z,41.00
2019-04-26T09:04:54.188Z,40.61
2019-04-26T09:05:54.179Z,38.45
2019-04-26T09:06:54.195Z,40.98
2019-04-26T09:07:57.632Z,39.80
2019-04-26T09:08:54.153Z,38.02
2019-04-26T09:09:57.332Z,40.00
2019-04-26T09:10:54.130Z,40.37
2019-04-26T09:11:59.900Z,36.74
2019-04-26T09:12:55.119Z,37.73
2019-04-26T09:13:54.092Z,39.09
2019-04-26T09:14:54.114Z,37.84
2019-04-26T09:15:54.114Z,40.19
2019-04-26T09:16:54.097Z,39.69
2019-04-26T09:17:54.057Z,39.59
2019-04-26T09:18:58.994Z,38.88
2019-04-26T09:19:55.061Z,38.39
2019-04-26T09:20:54.023Z,39.74
2019-04-26T09:21:54.036Z,39.84
2019-04-26T09:22:56.693Z,36.49
2019-04-26T09:23:54.994Z,38.55
2019-04-26T09:24:55.113Z,38.16
2019-04-26T09:25:59.331Z,38.16
2019-04-26T09:26:55.008Z,37.47
2019-04-26T09:27:53.957Z,37.08
2019-04-26T09:28:56.585Z,38.37
2019-04-26T09:29:53.952Z,38.08
2019-04-26T09:30:53.960Z,39.45
2019-04-26T09:31:54.563Z,38.67
2019-04-26T09:32:53.960Z,39.74
2019-04-26T09:33:53.892Z,36.63
2019-04-26T09:34:53.878Z,36.04
2019-04-26T09:35:53.873Z,37.71
2019-04-26T09:36:53.912Z,37.92
2019-04-26T09:37:53.909Z,37.43
2019-04-26T09:38:53.849Z,37.94
2019-04-26T09:39:53.830Z,40.88
2019-04-26T09:40:56.262Z,41.86
2019-04-26T09:41:53.837Z,38.33
2019-04-26T09:42:53.798Z,41.66
2019-04-26T09:43:54.980Z,40.78
2019-04-26T09:44:53.778Z,40.39
2019-04-26T09:45:53.780Z,39.70
2019-04-26T09:46:54.305Z,39.61
2019-04-26T09:47:53.834Z,39.69
2019-04-26T09:48:53.792Z,41.55
2019-04-26T09:49:53.728Z,39.66
2019-04-26T09:50:53.722Z,37.90
2019-04-26T09:51:53.790Z,38.10
2019-04-26T09:52:53.704Z,40.16
2019-04-26T09:53:53.688Z,38.20
2019-04-26T09:54:53.702Z,41.33
2019-04-26T09:55:53.682Z,40.16
2019-04-26T09:56:53.702Z,39.49
2019-04-26T09:57:57.048Z,39.86
2019-04-26T09:58:53.642Z,37.92
2019-04-26T09:59:53.672Z,38.21
2019-04-26T10:00:53.648Z,37.92
2019-04-26T10:01:55.424Z,36.25
2019-04-26T10:02:54.647Z,38.98
2019-04-26T10:03:53.586Z,40.35
2019-04-26T10:04:53.571Z,38.00
2019-04-26T10:05:55.895Z,38.68
2019-04-26T10:06:53.588Z,38.00
2019-04-26T10:07:53.556Z,39.66
2019-04-26T10:08:53.551Z,36.43
2019-04-26T10:09:56.461Z,37.41
2019-04-26T10:10:54.510Z,40.64
2019-04-26T10:11:53.530Z,39.69
2019-04-26T10:12:53.655Z,38.31
2019-04-26T10:13:53.509Z,39.39
2019-04-26T10:14:53.495Z,39.78
2019-04-26T10:15:53.483Z,38.41
2019-04-26T10:16:53.492Z,38.80
2019-04-26T10:17:53.441Z,39.29
2019-04-26T10:18:54.454Z,37.82
2019-04-26T10:19:53.421Z,40.37
2019-04-26T10:20:53.610Z,37.43
2019-04-26T10:21:53.415Z,40.17
2019-04-26T10:22:53.404Z,38.60
2019-04-26T10:23:53.404Z,37.94
2019-04-26T10:24:53.380Z,39.11
2019-04-26T10:25:53.619Z,40.00
2019-04-26T10:26:55.467Z,39.80
2019-04-26T10:27:53.359Z,38.90
2019-04-26T10:28:53.327Z,38.80
2019-04-26T10:29:56.142Z,39.61
2019-04-26T10:30:54.309Z,38.04
2019-04-26T10:31:53.375Z,37.52
2019-04-26T10:32:53.361Z,40.47
2019-04-26T10:33:53.299Z,39.27
2019-04-26T10:34:53.287Z,37.81
2019-04-26T10:35:56.775Z,40.35
2019-04-26T10:36:53.267Z,39.25
2019-04-26T10:37:53.271Z,40.14
2019-04-26T10:38:54.516Z,39.72
2019-04-26T10:39:53.216Z,38.67
2019-04-26T10:40:53.211Z,37.69
2019-04-26T10:41:53.209Z,38.00
2019-04-26T10:42:53.191Z,38.21
2019-04-26T10:43:53.183Z,40.37
2019-04-26T10:44:53.167Z,40.56
2019-04-26T10:45:53.969Z,38.23
2019-04-26T10:46:55.657Z,37.94
2019-04-26T10:47:53.145Z,37.96
2019-04-26T10:48:53.125Z,40.41
2019-04-26T10:49:54.365Z,41.37
2019-04-26T10:50:53.122Z,40.58
2019-04-26T10:51:53.106Z,39.31
2019-04-26T10:52:55.531Z,40.00
2019-04-26T10:53:53.199Z,40.00
2019-04-26T10:54:53.074Z,39.70
2019-04-26T10:55:53.052Z,38.00
2019-04-26T10:56:54.900Z,38.47
2019-04-26T10:57:53.060Z,37.98
2019-04-26T10:58:53.055Z,37.27
2019-04-26T10:59:53.027Z,36.47
2019-04-26T11:00:54.131Z,36.34
2019-04-26T11:01:53.013Z,36.34
2019-04-26T11:02:53.004Z,35.74
2019-04-26T11:03:53.030Z,36.58
2019-04-26T11:04:52.970Z,36.24
2019-04-26T11:05:53.650Z,36.30
2019-04-26T11:06:52.959Z,35.29
2019-04-26T11:07:53.498Z,33.12
2019-04-26T11:08:53.002Z,33.29
2019-04-26T11:09:52.931Z,31.62
2019-04-26T11:10:52.902Z,31.60
2019-04-26T11:11:52.934Z,31.49
2019-04-26T11:12:52.884Z,30.11
2019-04-26T11:13:52.872Z,30.02
2019-04-26T11:14:53.204Z,30.78
2019-04-26T11:15:52.925Z,29.49
2019-04-26T11:16:52.923Z,29.77
2019-04-26T11:17:52.838Z,29.35
2019-04-26T11:18:52.827Z,28.26
2019-04-26T11:19:52.823Z,29.69
2019-04-26T11:20:52.820Z,27.06
2019-04-26T11:21:54.813Z,26.75
2019-04-26T11:22:52.804Z,26.05
2019-04-26T11:23:52.975Z,26.50
2019-04-26T11:24:53.867Z,24.57
2019-04-26T11:25:52.813Z,24.07
2019-04-26T11:26:52.770Z,24.63
2019-04-26T11:27:52.750Z,24.91
2019-04-26T11:28:55.637Z,24.93
2019-04-26T11:29:53.765Z,25.02
2019-04-26T11:30:56.971Z,25.05
2019-04-26T11:31:54.109Z,25.61
2019-04-26T11:32:52.727Z,26.18
2019-04-26T11:34:04.437Z,24.64
2019-04-26T11:34:54.579Z,24.74
2019-04-26T11:35:52.684Z,26.18
2019-04-26T11:36:52.695Z,24.05
2019-04-26T11:37:55.166Z,24.24
2019-04-26T11:38:52.659Z,24.44
2019-04-26T11:39:52.677Z,24.34
2019-04-26T11:41:05.369Z,26.06
2019-04-26T11:41:53.641Z,24.43
2019-04-26T11:42:52.630Z,24.82
2019-04-26T11:43:54.379Z,25.49
2019-04-26T11:44:52.661Z,24.15
2019-04-26T11:46:03.824Z,23.66
2019-04-26T11:46:53.597Z,24.04
2019-04-26T11:47:56.208Z,23.37
2019-04-26T11:48:58.921Z,23.47
2019-04-26T11:49:53.625Z,23.01
2019-04-26T11:50:53.637Z,25.62
2019-04-26T11:51:52.607Z,24.76
2019-04-26T11:52:52.532Z,24.41
2019-04-26T11:53:52.521Z,26.82
2019-04-26T11:54:55.121Z,25.94
2019-04-26T11:55:52.532Z,24.49
2019-04-26T11:56:52.517Z,25.92
2019-04-26T11:57:52.495Z,23.21
2019-04-26T11:58:56.344Z,25.60
2019-04-26T11:59:52.485Z,25.21
2019-04-26T12:00:52.461Z,23.00
2019-04-26T12:01:52.469Z,26.15
2019-04-26T12:02:52.451Z,23.19
2019-04-26T12:03:55.628Z,22.81
2019-04-26T12:04:54.966Z,24.35
2019-04-26T12:05:52.413Z,24.19
2019-04-26T12:06:52.438Z,25.64
2019-04-26T12:07:52.399Z,25.07
2019-04-26T12:08:52.399Z,25.21
2019-04-26T12:09:52.376Z,26.10
2019-04-26T12:10:52.484Z,26.51
2019-04-26T12:12:03.993Z,26.23
2019-04-26T12:13:04.884Z,26.93
2019-04-26T12:13:55.353Z,27.14
2019-04-26T12:14:53.381Z,27.64
2019-04-26T12:15:52.327Z,27.17
2019-04-26T12:16:59.152Z,28.14
2019-04-26T12:17:58.645Z,28.91
2019-04-26T12:18:53.381Z,26.99
2019-04-26T12:19:53.340Z,27.00
2019-04-26T12:20:52.384Z,29.91
2019-04-26T12:21:52.309Z,29.63
2019-04-26T12:22:52.261Z,28.58
2019-04-26T12:23:55.452Z,30.44
2019-04-26T12:24:52.243Z,28.61
2019-04-26T12:25:52.228Z,29.80
2019-04-26T12:26:55.797Z,30.71
2019-04-26T12:27:53.566Z,30.72
2019-04-26T12:28:52.205Z,30.44
2019-04-26T12:29:52.194Z,32.03
2019-04-26T12:30:54.189Z,31.56
2019-04-26T12:31:53.186Z,31.56
2019-04-26T12:32:52.163Z,31.96
2019-04-26T12:33:52.165Z,32.39
2019-04-26T12:34:52.204Z,33.17
2019-04-26T12:35:56.894Z,32.99
2019-04-26T12:36:53.156Z,33.30
2019-04-26T12:37:54.643Z,33.59
2019-04-26T12:38:52.121Z,33.22
2019-04-26T12:39:52.086Z,33.90
2019-04-26T12:40:52.152Z,33.53
2019-04-26T12:41:52.070Z,33.33
2019-04-26T12:42:52.084Z,33.82
2019-04-26T12:43:54.511Z,34.42
2019-04-26T12:44:53.160Z,34.24
2019-04-26T12:45:52.573Z,35.03
2019-04-26T12:46:52.021Z,34.84
2019-04-26T12:47:52.096Z,35.24
2019-04-26T12:48:52.006Z,33.28
2019-04-26T12:49:54.468Z,33.56
2019-04-26T12:50:52.982Z,33.84
2019-04-26T12:51:52.217Z,35.77
2019-04-26T12:52:55.567Z,32.92